createdAt,value
2022-10-23T00:04:34.539Z,14.23
2022-10-23T00:09:37.820Z,12.05
2022-10-23T00:14:41.448Z,16.83
2022-10-23T00:19:49.536Z,13.02
2022-10-23T00:24:53.332Z,13.27
2022-10-23T00:29:57.071Z,13.13
2022-10-23T00:35:03.667Z,11.18
2022-10-23T00:40:08.748Z,9.75
2022-10-23T00:45:23.190Z,10.65
2022-10-23T00:50:28.184Z,10.50
2022-10-23T00:55:31.533Z,11.07
2022-10-23T01:00:44.171Z,17.17
2022-10-23T01:05:51.901Z,14.07
2022-10-23T01:10:58.568Z,13.20
2022-10-23T01:16:08.719Z,10.68
2022-10-23T01:21:15.373Z,11.57
2022-10-23T01:26:36.798Z,10.63
2022-10-23T01:31:45.140Z,12.50
2022-10-23T01:36:52.729Z,10.70
2022-10-23T01:41:59.934Z,12.40
2022-10-23T01:47:09.777Z,11.93
2022-10-23T01:52:25.787Z,9.82
2022-10-23T01:57:31.415Z,12.93
2022-10-23T02:02:37.175Z,13.45
2022-10-23T02:07:42.141Z,11.82
2022-10-23T02:12:52.946Z,13.35
2022-10-23T02:18:05.908Z,14.30
2022-10-23T02:23:15.748Z,15.55
2022-10-23T02:28:26.174Z,13.43
2022-10-23T02:33:35.515Z,15.45
2022-10-23T02:38:40.610Z,13.90
2022-10-23T02:43:47.663Z,23.02
2022-10-23T02:48:57.135Z,18.63
2022-10-23T02:54:04.877Z,14.55
2022-10-23T03:05:09.807Z,14.73
2022-10-23T03:10:13.638Z,14.48
2022-10-23T03:15:17.533Z,12.63
2022-10-23T03:20:23.122Z,9.85
2022-10-23T03:25:26.733Z,12.32
2022-10-23T03:30:35.397Z,14.00
2022-10-23T03:35:40.597Z,13.00
2022-10-23T03:40:44.418Z,9.70
2022-10-23T03:45:50.777Z,14.70
2022-10-23T03:50:55.693Z,14.35
2022-10-23T03:55:59.002Z,16.70
2022-10-23T04:01:02.456Z,12.45
2022-10-23T04:06:08.171Z,13.68
2022-10-23T04:11:12.574Z,12.70
2022-10-23T04:16:22.222Z,11.30
2022-10-23T04:21:27.213Z,10.75
2022-10-23T04:26:31.786Z,11.45
2022-10-23T04:31:35.009Z,10.75
2022-10-23T04:36:39.933Z,9.88
2022-10-23T04:41:45.968Z,8.35
2022-10-23T04:46:50.410Z,11.77
2022-10-23T04:51:55.062Z,11.38
2022-10-23T04:57:19.439Z,13.85
2022-10-23T05:02:36.191Z,12.82
2022-10-23T05:07:41.490Z,13.23
2022-10-23T05:13:07.811Z,14.73
2022-10-23T05:18:12.479Z,12.07
2022-10-23T05:23:17.467Z,12.73
2022-10-23T05:28:30.010Z,15.60
2022-10-23T05:33:33.861Z,16.65
2022-10-23T05:38:38.774Z,16.00
2022-10-23T05:43:49.694Z,7.75
2022-10-23T05:49:27.844Z,9.98
2022-10-23T05:54:53.755Z,8.85
2022-10-23T06:00:19.041Z,11.65
2022-10-23T06:05:31.589Z,10.63
2022-10-23T06:10:53.736Z,7.30
2022-10-23T06:15:57.229Z,12.40
2022-10-23T06:21:02.368Z,17.25
2022-10-23T06:26:08.158Z,13.18
2022-10-23T06:31:26.845Z,10.90
2022-10-23T06:36:31.872Z,13.27
2022-10-23T06:41:47.758Z,14.30
2022-10-23T06:47:13.011Z,15.32
2022-10-23T06:52:46.650Z,11.35
2022-10-23T06:57:54.905Z,12.52
2022-10-23T07:02:58.076Z,13.73
2022-10-23T07:08:01.693Z,11.15
2022-10-23T07:18:17.476Z,17.02
2022-10-23T07:23:38.935Z,13.80
2022-10-23T07:28:46.330Z,13.30
2022-10-23T07:33:54.118Z,19.85
2022-10-23T07:38:59.149Z,11.93
2022-10-23T07:44:03.589Z,12.07
2022-10-23T07:49:06.708Z,8.52
2022-10-23T07:54:12.447Z,14.38
2022-10-23T07:59:52.298Z,8.90
2022-10-23T08:04:57.784Z,13.77
2022-10-23T08:10:10.873Z,11.30
2022-10-23T08:15:18.550Z,11.32
2022-10-23T08:20:30.210Z,9.93
2022-10-23T08:25:33.661Z,9.77
2022-10-23T08:30:38.467Z,10.82
2022-10-23T08:35:41.999Z,10.60
2022-10-23T08:40:46.373Z,7.85
2022-10-23T08:45:57.415Z,8.75
2022-10-23T08:51:23.407Z,12.05
2022-10-23T08:56:28.687Z,11.02
2022-10-23T09:01:38.654Z,10.45
2022-10-23T09:06:45.284Z,11.38
2022-10-23T09:11:50.532Z,4.63
2022-10-23T09:17:02.421Z,6.20
2022-10-23T09:22:06.704Z,4.00
2022-10-23T09:27:11.794Z,3.65
2022-10-23T09:32:16.337Z,3.78
2022-10-23T09:37:23.172Z,4.07
2022-10-23T09:42:26.755Z,4.97
2022-10-23T09:47:31.854Z,4.28
2022-10-23T09:52:36.377Z,3.33
2022-10-23T09:57:42.722Z,2.72
2022-10-23T10:02:56.782Z,2.65
2022-10-23T10:08:37.230Z,2.42
2022-10-23T10:14:19.879Z,2.20
2022-10-23T10:19:44.263Z,2.10
2022-10-23T10:24:50.131Z,2.13
2022-10-23T10:30:00.250Z,1.88
2022-10-23T10:35:13.689Z,1.90
2022-10-23T10:40:19.759Z,2.10
2022-10-23T10:45:28.386Z,2.05
2022-10-23T10:50:38.916Z,1.70
2022-10-23T10:55:53.165Z,1.70
2022-10-23T11:00:57.635Z,2.20
2022-10-23T11:06:02.283Z,1.73
2022-10-23T11:11:07.737Z,1.98
2022-10-23T11:16:12.818Z,1.60
2022-10-23T11:21:27.968Z,1.90
2022-10-23T11:26:41.138Z,1.70
2022-10-23T11:31:47.151Z,1.55
2022-10-23T11:36:52.290Z,1.52
2022-10-23T11:41:56.451Z,1.90
2022-10-23T11:47:03.566Z,1.60
2022-10-23T11:52:22.723Z,1.70
2022-10-23T11:57:38.202Z,1.75
2022-10-23T12:02:42.980Z,2.10
2022-10-23T12:07:47.813Z,1.73
2022-10-23T12:12:57.075Z,1.67
2022-10-23T12:18:10.199Z,2.20
2022-10-23T12:23:43.204Z,1.85
2022-10-23T12:28:51.962Z,1.90
2022-10-23T12:33:59.179Z,1.95
2022-10-23T12:39:04.118Z,1.47
2022-10-23T12:44:07.200Z,1.63
2022-10-23T12:49:15.305Z,2.13
2022-10-23T12:54:20.991Z,2.40
2022-10-23T12:59:26.278Z,2.22
2022-10-23T13:04:31.119Z,2.05
2022-10-23T13:09:37.170Z,2.50
2022-10-23T13:15:01.104Z,2.40
2022-10-23T13:20:22.134Z,2.53
2022-10-23T13:25:28.096Z,2.40
2022-10-23T13:30:32.438Z,2.22
2022-10-23T13:35:37.314Z,2.10
2022-10-23T13:40:41.752Z,2.45
2022-10-23T13:45:44.862Z,2.15
2022-10-23T13:50:47.969Z,2.05
2022-10-23T13:55:56.292Z,2.28
2022-10-23T14:01:01.849Z,2.88
2022-10-23T14:06:05.582Z,2.92
2022-10-23T14:11:10.363Z,2.05
2022-10-23T14:16:14.282Z,2.50
2022-10-23T14:21:19.899Z,3.10
2022-10-23T14:26:25.852Z,2.60
2022-10-23T14:31:28.906Z,3.00
2022-10-23T14:36:38.885Z,3.50
2022-10-23T14:41:54.698Z,3.20
2022-10-23T14:46:59.518Z,3.20
2022-10-23T14:52:02.679Z,3.03
2022-10-23T14:57:07.256Z,3.13
2022-10-23T15:02:12.380Z,3.03
2022-10-23T15:07:15.951Z,3.40
2022-10-23T15:12:20.344Z,4.03
2022-10-23T15:17:23.626Z,3.75
2022-10-23T15:22:27.205Z,3.47
2022-10-23T15:27:31.631Z,3.60
2022-10-23T15:32:34.700Z,3.67
2022-10-23T15:37:37.691Z,3.60
2022-10-23T15:42:42.504Z,3.42
2022-10-23T15:47:46.421Z,4.28
2022-10-23T15:52:50.702Z,3.60
2022-10-23T15:57:57.287Z,4.70
2022-10-23T16:03:00.516Z,4.13
2022-10-23T16:08:03.721Z,4.35
2022-10-23T16:13:08.305Z,5.18
2022-10-23T16:18:13.082Z,5.75
2022-10-23T16:23:16.666Z,6.43
2022-10-23T16:28:21.253Z,6.00
2022-10-23T16:33:24.754Z,5.57
2022-10-23T16:38:27.870Z,3.83
2022-10-23T16:43:32.801Z,3.70
2022-10-23T16:48:55.837Z,2.90
2022-10-23T16:53:59.287Z,3.70
2022-10-23T16:59:04.112Z,4.07
2022-10-23T17:04:07.322Z,3.72
2022-10-23T17:09:11.047Z,3.47
2022-10-23T17:14:17.481Z,2.50
2022-10-23T17:24:48.711Z,2.28
2022-10-23T17:29:56.770Z,2.80
2022-10-23T17:34:59.856Z,2.63
2022-10-23T17:40:03.559Z,2.35
2022-10-23T17:45:09.216Z,2.90
2022-10-23T17:50:13.178Z,2.70
2022-10-23T17:55:16.466Z,3.03
2022-10-23T18:00:21.497Z,4.07
2022-10-23T18:05:24.979Z,4.07
2022-10-23T18:10:28.170Z,8.52
2022-10-23T18:15:34.530Z,6.75
2022-10-23T18:20:40.894Z,4.30
2022-10-23T18:25:44.152Z,5.80
2022-10-23T18:30:51.112Z,5.97
2022-10-23T18:40:59.972Z,7.15
2022-10-23T18:46:04.430Z,6.05
2022-10-23T18:51:15.875Z,8.02
2022-10-23T18:56:45.308Z,5.00
2022-10-23T19:01:52.816Z,6.15
2022-10-23T19:06:56.106Z,8.40
2022-10-23T19:12:00.498Z,4.47
2022-10-23T19:17:06.123Z,5.25
2022-10-23T19:22:09.854Z,4.10
2022-10-23T19:27:12.940Z,3.97
2022-10-23T19:32:19.291Z,4.28
2022-10-23T19:37:23.491Z,4.03
2022-10-23T19:42:26.617Z,4.95
2022-10-23T19:47:31.157Z,5.85
2022-10-23T19:52:34.532Z,4.53
2022-10-23T19:57:37.850Z,5.55
2022-10-23T20:02:42.246Z,4.70
2022-10-23T20:07:48.548Z,4.97
2022-10-23T20:13:02.263Z,4.18
2022-10-23T20:18:18.844Z,4.43
2022-10-23T20:23:22.026Z,4.82
2022-10-23T20:28:28.341Z,4.45
2022-10-23T20:33:33.627Z,4.93
2022-10-23T20:38:36.943Z,4.47
2022-10-23T20:43:40.366Z,4.45
2022-10-23T20:48:45.757Z,4.47
2022-10-23T20:53:51.587Z,3.72
2022-10-23T20:58:55.766Z,5.30
2022-10-23T21:04:00.970Z,3.83
2022-10-23T21:09:08.054Z,3.60
2022-10-23T21:14:11.467Z,3.45
2022-10-23T21:19:16.732Z,3.97
2022-10-23T21:24:20.058Z,3.30
2022-10-23T21:29:23.511Z,3.55
2022-10-23T21:34:28.173Z,3.70
2022-10-23T21:39:31.759Z,3.40
2022-10-23T21:44:34.929Z,3.60
2022-10-23T21:49:39.822Z,3.38
2022-10-23T21:54:43.351Z,3.67
2022-10-23T21:59:46.843Z,4.20
2022-10-23T22:04:51.647Z,3.38
2022-10-23T22:09:57.573Z,3.85
2022-10-23T22:15:01.070Z,3.53
2022-10-23T22:20:07.045Z,3.13
2022-10-23T22:25:10.941Z,4.50
2022-10-23T22:30:14.437Z,3.63
2022-10-23T22:35:19.142Z,4.18
2022-10-23T22:40:22.886Z,4.10
2022-10-23T22:45:26.026Z,3.97
2022-10-23T22:50:31.022Z,4.03
2022-10-23T22:55:34.172Z,4.53
2022-10-23T23:00:41.381Z,4.72
2022-10-23T23:05:51.840Z,4.70
2022-10-23T23:10:55.232Z,4.28
2022-10-23T23:15:58.835Z,4.80
2022-10-23T23:21:03.742Z,5.22
2022-10-23T23:26:07.271Z,4.70
2022-10-23T23:31:12.519Z,4.78
2022-10-23T23:36:18.880Z,4.90
2022-10-23T23:41:22.155Z,5.07
2022-10-23T23:46:25.669Z,4.55
2022-10-23T23:51:30.362Z,4.45
2022-10-23T23:56:33.666Z,4.70
